Time;durP1;ratioP1;P1;durP2;ratioP2;P2;SDS_P1;SDS_P2;PMS_P1;PMS_P2;Temp;Humidity;BMP_temperature;BMP_pressure;BME280_temperature;BME280_humidity;BME280_pressure;Samples;Min_cycle;Max_cycle;Signal;HPM_P1;HPM_P2
2023/02/01 00:00:47;;;;;;;3.70;1.40;;;;;;;2.42;80.21;99737.91;130196;1257;115301;-63
2023/02/01 00:04:00;;;;;;;5.70;1.40;;;;;;;2.38;80.21;99741.17;130067;1275;115112;-64
2023/02/01 00:07:03;;;;;;;5.60;2.00;;;;;;;2.34;79.98;99740.73;130238;1255;115089;-60
2023/02/01 00:10:07;;;;;;;5.60;1.40;;;;;;;2.33;80.15;99734.10;130194;1253;116311;-59
2023/02/01 00:13:09;;;;;;;9.60;1.80;;;;;;;2.29;80.09;99732.26;130103;1256;114741;-59
2023/02/01 00:16:18;;;;;;;10.40;1.60;;;;;;;2.24;80.07;99724.44;130256;1274;114677;-59
2023/02/01 00:19:20;;;;;;;18.20;10.80;;;;;;;2.18;79.83;99730.91;129888;1257;115164;-65
2023/02/01 00:22:23;;;;;;;20.90;12.60;;;;;;;2.10;79.75;99731.64;130261;1254;115318;-62
2023/02/01 00:25:25;;;;;;;11.90;8.10;;;;;;;2.01;79.83;99731.14;130170;1252;114708;-59
2023/02/01 00:28:28;;;;;;;20.70;15.30;;;;;;;1.94;80.01;99734.66;130286;1254;114771;-60
2023/02/01 00:31:31;;;;;;;21.10;15.60;;;;;;;1.88;80.14;99734.80;130212;1252;114700;-60
2023/02/01 00:34:34;;;;;;;19.00;7.00;;;;;;;1.83;80.08;99742.64;129756;1267;129845;-59
2023/02/01 00:37:36;;;;;;;6.80;3.00;;;;;;;1.81;80.31;99740.58;130247;1257;114718;-59
2023/02/01 00:40:39;;;;;;;11.50;3.90;;;;;;;1.80;80.39;99747.65;130153;1255;115356;-59
2023/02/01 00:43:42;;;;;;;7.70;3.10;;;;;;;1.80;80.59;99748.89;130361;1254;114666;-67
2023/02/01 00:46:44;;;;;;;13.90;7.30;;;;;;;1.82;80.97;99750.79;130059;1259;114914;-60
2023/02/01 00:49:47;;;;;;;6.30;3.50;;;;;;;1.85;81.07;99743.84;130143;1273;114709;-66
2023/02/01 00:52:49;;;;;;;11.30;4.30;;;;;;;1.89;81.14;99742.89;130286;1254;114774;-62
2023/02/01 00:55:52;;;;;;;11.00;3.60;;;;;;;1.93;81.18;99735.21;130368;1272;115147;-60
2023/02/01 00:58:54;;;;;;;14.70;3.90;;;;;;;1.99;81.54;99743.19;129915;1273;115116;-63
2023/02/01 01:01:57;;;;;;;8.00;2.40;;;;;;;2.05;81.35;99745.33;130347;1254;114781;-63
2023/02/01 01:04:59;;;;;;;6.50;2.10;;;;;;;2.11;81.61;99745.90;130401;1254;114706;-58
2023/02/01 01:08:02;;;;;;;8.60;1.90;;;;;;;2.18;81.38;99746.95;130299;1251;114731;-59
2023/02/01 01:11:10;;;;;;;10.50;2.20;;;;;;;2.23;81.60;99746.31;130019;1257;115535;-60
2023/02/01 01:14:13;;;;;;;9.80;2.50;;;;;;;2.27;81.49;99748.50;129922;1267;127505;-61
2023/02/01 01:17:16;;;;;;;13.00;2.60;;;;;;;2.29;81.52;99747.05;130229;1254;114721;-60
2023/02/01 01:20:21;;;;;;;13.10;2.70;;;;;;;2.29;81.58;99742.81;130331;1254;114713;-60
2023/02/01 01:23:24;;;;;;;9.50;2.50;;;;;;;2.26;81.41;99744.11;129788;1254;114956;-60
2023/02/01 01:26:28;;;;;;;10.90;2.70;;;;;;;2.22;81.47;99743.68;130076;1270;115213;-65
2023/02/01 01:29:30;;;;;;;8.60;2.20;;;;;;;2.19;81.30;99746.04;129928;1258;128423;-60
2023/02/01 01:32:33;;;;;;;11.80;2.50;;;;;;;2.16;81.51;99751.75;130148;1257;114748;-60
2023/02/01 01:35:35;;;;;;;8.40;2.80;;;;;;;2.12;81.42;99749.39;130160;1258;114814;-64
2023/02/01 01:38:39;;;;;;;8.90;2.30;;;;;;;2.09;81.42;99741.72;130251;1275;114712;-66
2023/02/01 01:41:41;;;;;;;4.80;1.60;;;;;;;2.05;81.56;99740.92;130078;1260;115016;-59
2023/02/01 01:45:07;;;;;;;8.30;1.70;;;;;;;2.03;81.39;99740.27;130118;1275;114731;-66
2023/02/01 01:48:14;;;;;;;13.40;2.30;;;;;;;1.99;81.46;99744.41;130083;1259;127750;-71
2023/02/01 01:51:18;;;;;;;8.40;1.80;;;;;;;1.96;81.63;99753.98;130344;1274;115326;-67
2023/02/01 01:54:31;;;;;;;7.50;1.90;;;;;;;1.98;81.58;99760.12;130342;1250;114617;-62
2023/02/01 01:57:38;;;;;;;3.80;1.30;;;;;;;1.99;81.84;99764.48;129934;1273;114982;-60
2023/02/01 02:00:41;;;;;;;7.90;1.60;;;;;;;2.01;81.75;99766.72;130327;1271;114804;-61
2023/02/01 02:03:47;;;;;;;8.00;1.50;;;;;;;2.03;81.83;99766.35;130385;1251;114687;-65
2023/02/01 02:07:05;;;;;;;7.10;2.00;;;;;;;2.04;81.75;99768.59;130019;1251;115093;-67
2023/02/01 02:10:13;;;;;;;6.80;1.90;;;;;;;2.07;81.83;99770.83;130087;1259;114809;-68
2023/02/01 02:13:17;;;;;;;6.70;1.90;;;;;;;2.08;81.84;99765.15;130232;1273;114693;-62
2023/02/01 02:16:31;;;;;;;7.90;1.90;;;;;;;2.11;81.92;99762.45;129964;1273;114908;-58
2023/02/01 02:19:55;;;;;;;9.20;2.90;;;;;;;2.13;81.89;99765.58;130188;1273;128987;-67
2023/02/01 02:23:48;;;;;;;8.50;2.30;;;;;;;2.13;81.84;99766.27;130221;1274;115204;-62
2023/02/01 02:27:22;;;;;;;9.20;1.90;;;;;;;2.13;82.06;99759.58;129287;1259;114900;-63
2023/02/01 02:30:41;;;;;;;10.50;2.30;;;;;;;2.16;81.93;99760.93;129223;1260;114848;-59
2023/02/01 02:34:14;;;;;;;10.90;2.20;;;;;;;2.20;82.26;99759.58;129226;1260;114923;-62
2023/02/01 02:37:26;;;;;;;9.90;2.60;;;;;;;2.25;82.26;99753.66;129389;1283;129226;-60
2023/02/01 02:40:40;;;;;;;10.60;3.20;;;;;;;2.31;82.59;99749.81;129460;1283;115321;-70
2023/02/01 02:47:33;;;;;;;12.40;3.50;;;;;;;2.43;82.54;99747.23;129472;1282;115384;-64
2023/02/01 03:04:19;;;;;;;19.00;3.30;;;;;;;2.66;81.94;99757.57;130230;1257;114779;-61
2023/02/01 03:07:44;;;;;;;19.50;3.70;;;;;;;2.70;81.89;99757.47;130177;1255;114825;-61
2023/02/01 03:11:02;;;;;;;16.10;3.20;;;;;;;2.77;81.77;99759.95;130094;1260;128969;-59
2023/02/01 03:14:06;;;;;;;21.40;3.60;;;;;;;2.81;81.63;99757.02;130131;1274;115138;-58
2023/02/01 03:17:14;;;;;;;20.50;3.50;;;;;;;2.85;81.62;99757.77;130056;1262;115019;-61
2023/02/01 03:20:19;;;;;;;22.40;3.00;;;;;;;2.89;81.50;99762.26;129967;1256;114805;-59
2023/02/01 03:23:25;;;;;;;20.70;3.30;;;;;;;2.92;81.32;99760.41;130172;1256;114869;-64
2023/02/01 03:26:29;;;;;;;17.10;3.30;;;;;;;2.95;81.33;99760.52;130224;1256;128799;-61
2023/02/01 03:29:38;;;;;;;17.90;3.80;;;;;;;2.98;81.15;99764.67;130085;1257;115310;-60
2023/02/01 03:33:01;;;;;;;16.10;3.90;;;;;;;2.98;80.90;99761.51;129960;1254;115211;-65
2023/02/01 03:36:22;;;;;;;20.60;3.70;;;;;;;2.96;80.92;99764.37;130268;1252;115042;-60
2023/02/01 03:39:32;;;;;;;22.60;3.50;;;;;;;2.95;80.43;99764.40;130315;1273;114841;-61
2023/02/01 03:42:38;;;;;;;18.70;3.60;;;;;;;2.96;80.65;99766.85;130267;1270;128802;-63
2023/02/01 03:45:44;;;;;;;17.00;3.40;;;;;;;2.98;80.55;99768.55;130271;1256;115230;-62
2023/02/01 03:48:49;;;;;;;19.20;3.60;;;;;;;2.99;80.68;99760.22;130091;1251;114676;-60
2023/02/01 03:51:53;;;;;;;19.40;3.40;;;;;;;2.98;80.28;99760.63;130143;1251;114782;-61
2023/02/01 03:54:56;;;;;;;19.90;4.10;;;;;;;2.96;80.31;99753.63;130152;1257;114762;-69
2023/02/01 03:58:14;;;;;;;19.70;3.90;;;;;;;2.93;80.21;99745.41;130202;1256;114731;-71
2023/02/01 04:01:17;;;;;;;19.80;3.90;;;;;;;2.89;80.11;99747.45;129880;1251;115143;-66
2023/02/01 04:04:19;;;;;;;17.40;3.60;;;;;;;2.83;79.98;99745.31;130329;1257;114784;-59
2023/02/01 04:07:22;;;;;;;15.70;3.20;;;;;;;2.77;79.98;99736.48;130352;1255;114785;-63
2023/02/01 04:10:24;;;;;;;14.90;3.40;;;;;;;2.71;79.84;99731.34;130465;1257;114692;-62
2023/02/01 04:13:27;;;;;;;16.00;3.10;;;;;;;2.66;79.83;99727.08;130301;1251;114714;-64
2023/02/01 04:16:33;;;;;;;18.80;3.50;;;;;;;2.60;79.74;99727.06;130250;1251;114756;-72
2023/02/01 04:19:35;;;;;;;12.50;2.90;;;;;;;2.53;79.62;99728.12;130284;1257;114802;-63
2023/02/01 04:22:38;;;;;;;10.40;3.30;;;;;;;2.48;79.96;99725.97;130278;1255;114873;-61
2023/02/01 04:25:40;;;;;;;20.10;4.20;;;;;;;2.45;79.96;99725.33;130297;1254;114799;-64
2023/02/01 04:28:43;;;;;;;23.40;4.40;;;;;;;2.42;79.78;99723.63;130317;1261;114778;-67
2023/02/01 04:31:46;;;;;;;14.60;4.00;;;;;;;2.40;79.85;99725.25;130253;1252;114899;-61
2023/02/01 04:34:48;;;;;;;20.20;3.80;;;;;;;2.38;79.94;99724.80;130376;1256;114763;-60
2023/02/01 04:37:50;;;;;;;15.20;3.20;;;;;;;2.35;79.67;99723.28;130093;1257;114742;-66
2023/02/01 04:40:53;;;;;;;20.60;3.50;;;;;;;2.33;79.76;99719.10;130307;1253;115444;-61
2023/02/01 04:43:56;;;;;;;20.50;4.30;;;;;;;2.30;79.94;99718.99;130277;1254;114843;-62
2023/02/01 04:46:58;;;;;;;16.30;3.40;;;;;;;2.29;79.95;99722.39;130269;1256;115163;-71
2023/02/01 04:50:01;;;;;;;22.90;4.50;;;;;;;2.29;79.95;99724.84;130195;1256;115125;-69
2023/02/01 04:53:04;;;;;;;22.10;6.10;;;;;;;2.31;80.04;99723.04;130134;1257;114703;-71
2023/02/01 04:56:07;;;;;;;16.00;3.40;;;;;;;2.35;80.22;99723.64;130287;1256;114715;-67
2023/02/01 04:59:12;;;;;;;16.50;4.00;;;;;;;2.40;80.26;99725.27;129906;1256;116629;-62
2023/02/01 05:02:14;;;;;;;22.70;4.60;;;;;;;2.46;80.04;99724.94;130227;1254;114715;-59
2023/02/01 05:05:16;;;;;;;14.20;3.80;;;;;;;2.54;80.31;99726.85;130179;1257;114737;-60
2023/02/01 05:08:19;;;;;;;15.30;4.20;;;;;;;2.61;80.21;99719.45;130162;1256;114795;-60
2023/02/01 05:14:42;;;;;;;17.80;3.70;;;;;;;2.76;80.03;99723.29;130228;1265;128302;-59
2023/02/01 05:17:44;;;;;;;18.70;3.70;;;;;;;2.83;79.90;99725.04;130211;1257;114785;-60
2023/02/01 05:20:48;;;;;;;14.70;3.70;;;;;;;2.89;79.87;99720.64;130314;1256;115147;-63
2023/02/01 05:27:11;;;;;;;14.60;4.10;;;;;;;3.01;79.67;99711.85;130186;1257;114715;-59
2023/02/01 05:30:14;;;;;;;21.20;5.40;;;;;;;3.08;79.67;99712.54;130184;1257;114782;-66
2023/02/01 05:33:16;;;;;;;12.50;3.40;;;;;;;3.13;79.36;99712.23;130213;1254;115073;-60
2023/02/01 05:36:19;;;;;;;19.60;3.70;;;;;;;3.19;79.33;99710.30;130380;1252;115373;-62
2023/02/01 05:39:21;;;;;;;20.00;3.80;;;;;;;3.24;79.19;99709.08;129888;1255;115348;-69
2023/02/01 05:42:24;;;;;;;18.80;3.60;;;;;;;3.27;79.22;99713.21;130324;1255;115149;-63
2023/02/01 05:45:26;;;;;;;17.40;3.50;;;;;;;3.28;78.91;99705.97;130311;1255;114754;-63
2023/02/01 05:48:31;;;;;;;13.70;3.40;;;;;;;3.26;78.71;99700.90;130263;1254;116355;-65
2023/02/01 05:51:37;;;;;;;12.70;3.80;;;;;;;3.25;78.51;99698.65;130063;1257;114750;-67
2023/02/01 05:54:39;;;;;;;15.30;3.30;;;;;;;3.22;78.47;99692.55;129933;1274;128253;-65
2023/02/01 05:57:42;;;;;;;25.20;3.80;;;;;;;3.18;78.27;99691.59;130343;1267;114715;-61
2023/02/01 06:00:44;;;;;;;23.70;3.70;;;;;;;3.16;78.22;99688.48;130329;1255;114712;-65
2023/02/01 06:03:47;;;;;;;16.80;3.20;;;;;;;3.17;78.20;99686.17;130359;1256;114724;-71
2023/02/01 06:06:50;;;;;;;20.10;3.50;;;;;;;3.16;78.38;99681.08;130120;1254;114716;-61
2023/02/01 06:09:52;;;;;;;17.40;3.80;;;;;;;3.16;78.30;99677.52;130368;1271;114701;-60
2023/02/01 06:12:56;;;;;;;16.90;3.30;;;;;;;3.18;78.33;99677.48;130000;1275;128584;-62
2023/02/01 06:15:59;;;;;;;17.30;3.60;;;;;;;3.23;78.37;99676.83;130399;1275;114785;-62
2023/02/01 06:19:01;;;;;;;19.20;3.80;;;;;;;3.25;78.44;99675.52;130344;1262;114772;-72
2023/02/01 06:22:06;;;;;;;14.50;3.30;;;;;;;3.30;78.26;99668.16;130260;1257;114785;-67
2023/02/01 06:25:09;;;;;;;;;;;;;;;3.34;78.12;99668.20;130301;1257;114779;-68
2023/02/01 06:28:11;;;;;;;20.10;4.10;;;;;;;3.38;78.04;99668.25;130204;1256;114810;-67
2023/02/01 06:31:14;;;;;;;15.80;3.10;;;;;;;3.43;78.17;99670.94;130288;1264;115074;-65
2023/02/01 06:34:18;;;;;;;17.00;3.50;;;;;;;3.47;78.10;99674.70;130309;1257;115184;-71
2023/02/01 06:37:20;;;;;;;24.50;3.60;;;;;;;3.52;77.97;99676.33;130470;1256;114737;-67
2023/02/01 06:40:22;;;;;;;19.60;3.80;;;;;;;3.56;78.07;99677.77;130217;1251;114721;-65
2023/02/01 06:43:26;;;;;;;18.70;4.00;;;;;;;3.60;78.05;99682.08;130197;1251;114780;-62
2023/02/01 06:46:29;;;;;;;13.30;3.50;;;;;;;3.63;77.69;99685.87;130012;1274;114776;-61
2023/02/01 06:49:31;;;;;;;13.80;3.10;;;;;;;3.67;77.80;99688.38;130181;1257;114719;-73
2023/02/01 06:52:35;;;;;;;12.30;3.30;;;;;;;3.70;77.64;99691.64;130285;1255;114804;-61
2023/02/01 06:55:37;;;;;;;21.80;4.50;;;;;;;3.75;77.62;99699.80;130668;1256;114718;-64
2023/02/01 06:58:39;;;;;;;17.70;3.10;;;;;;;3.79;77.35;99702.33;130354;1258;115379;-64
2023/02/01 07:01:41;;;;;;;17.10;3.10;;;;;;;3.84;77.43;99701.46;130236;1264;114761;-61
2023/02/01 07:04:44;;;;;;;17.10;3.60;;;;;;;3.87;77.30;99700.85;130278;1254;114893;-62
2023/02/01 07:07:46;;;;;;;15.30;4.00;;;;;;;3.90;77.30;99696.50;130495;1251;115388;-63
2023/02/01 07:10:48;;;;;;;13.70;3.50;;;;;;;3.93;77.19;99695.86;130023;1262;128076;-61
2023/02/01 07:13:50;;;;;;;21.10;3.90;;;;;;;3.97;77.21;99696.46;130099;1256;114658;-66
2023/02/01 07:16:53;;;;;;;19.30;3.80;;;;;;;4.00;77.09;99698.81;130187;1256;114803;-61
2023/02/01 07:19:56;;;;;;;17.00;4.40;;;;;;;4.03;76.97;99699.11;130231;1254;114990;-69
2023/02/01 07:22:58;;;;;;;25.40;4.10;;;;;;;4.05;77.00;99700.63;130053;1256;115022;-66
2023/02/01 07:26:03;;;;;;;17.10;4.50;;;;;;;4.07;76.87;99700.38;130122;1264;114708;-72
2023/02/01 07:29:05;;;;;;;12.30;3.50;;;;;;;4.10;76.87;99701.52;129831;1262;127943;-62
2023/02/01 07:32:08;;;;;;;15.50;3.90;;;;;;;4.13;76.66;99697.55;130200;1264;114767;-70
2023/02/01 07:35:10;;;;;;;21.00;4.30;;;;;;;4.14;76.69;99699.80;130199;1255;114731;-66
2023/02/01 07:38:12;;;;;;;15.50;3.40;;;;;;;4.17;76.56;99698.10;130308;1254;115094;-61
2023/02/01 07:41:15;;;;;;;16.10;4.30;;;;;;;4.20;76.55;99700.67;130037;1260;114807;-62
2023/02/01 07:44:22;;;;;;;19.20;4.50;;;;;;;4.23;76.53;99700.73;130163;1257;115327;-62
2023/02/01 07:47:25;;;;;;;14.50;5.00;;;;;;;4.26;76.46;99693.92;130204;1275;129217;-65
2023/02/01 07:50:27;;;;;;;21.50;5.20;;;;;;;4.29;76.41;99692.40;130267;1257;114705;-62
2023/02/01 07:53:32;;;;;;;20.80;4.50;;;;;;;4.32;76.43;99684.73;130247;1256;114667;-61
2023/02/01 07:56:35;;;;;;;24.70;3.60;;;;;;;4.34;76.25;99681.63;130275;1265;114759;-66
2023/02/01 08:01:19;;;;;;;14.00;3.60;;;;;;;4.40;76.24;99681.61;130069;1257;114741;-63
2023/02/01 08:03:00;;;;;;;12.00;3.40;;;;;;;4.47;76.27;99679.77;130421;1275;128955;-61
2023/02/01 08:06:03;;;;;;;15.70;3.80;;;;;;;4.53;76.40;99676.92;130508;1254;115364;-62
2023/02/01 08:09:07;;;;;;;29.30;4.60;;;;;;;4.57;75.97;99676.59;130589;1256;114697;-62
2023/02/01 08:12:09;;;;;;;21.10;5.20;;;;;;;4.60;75.88;99678.27;130349;1257;114709;-61
2023/02/01 08:15:12;;;;;;;16.10;5.20;;;;;;;4.64;76.10;99680.63;130136;1259;114728;-61
2023/02/01 08:18:16;;;;;;;17.20;4.10;;;;;;;4.68;76.13;99676.74;130091;1256;114693;-61
2023/02/01 08:21:21;;;;;;;24.40;6.10;;;;;;;4.75;76.21;99674.40;130374;1257;115234;-67
2023/02/01 08:24:24;;;;;;;15.50;3.60;;;;;;;4.81;76.23;99672.73;130085;1262;114711;-71
2023/02/01 08:27:26;;;;;;;15.80;5.30;;;;;;;4.92;76.12;99666.69;130400;1257;114687;-61
2023/02/01 08:30:28;;;;;;;18.90;4.20;;;;;;;5.00;76.19;99660.19;130378;1264;114772;-61
2023/02/01 08:33:31;;;;;;;15.80;4.50;;;;;;;5.09;76.05;99659.70;130464;1251;115674;-66
2023/02/01 08:36:34;;;;;;;18.30;4.40;;;;;;;5.21;76.22;99656.41;130162;1275;129399;-62
2023/02/01 08:39:37;;;;;;;16.20;4.10;;;;;;;5.37;75.96;99654.06;129998;1254;115419;-61
2023/02/01 08:42:51;;;;;;;13.50;4.30;;;;;;;5.47;75.55;99651.88;130368;1255;114744;-71
2023/02/01 08:45:55;;;;;;;18.60;5.00;;;;;;;5.54;75.44;99653.58;130146;1275;114705;-71
2023/02/01 08:48:57;;;;;;;20.40;6.60;;;;;;;5.58;75.38;99646.67;130254;1265;114705;-68
2023/02/01 08:52:00;;;;;;;17.30;3.80;;;;;;;5.60;75.13;99650.15;130124;1256;114801;-61
2023/02/01 08:55:03;;;;;;;17.90;4.00;;;;;;;5.59;74.81;99649.31;130194;1275;114696;-64
2023/02/01 08:58:05;;;;;;;16.70;4.60;;;;;;;5.57;74.67;99653.44;130195;1256;114708;-69
2023/02/01 09:01:12;;;;;;;13.90;3.80;;;;;;;5.55;74.61;99665.38;130195;1257;114714;-61
2023/02/01 09:04:14;;;;;;;18.70;3.90;;;;;;;5.55;74.55;99660.08;130125;1275;114859;-61
2023/02/01 09:07:17;;;;;;;15.70;3.70;;;;;;;5.55;74.60;99659.38;130224;1275;114808;-64
2023/02/01 09:10:20;;;;;;;14.80;3.60;;;;;;;5.56;74.65;99660.23;130073;1253;114795;-65
2023/02/01 09:13:22;;;;;;;16.10;4.00;;;;;;;5.56;74.43;99665.52;130147;1257;114699;-60
2023/02/01 09:16:25;;;;;;;20.40;4.30;;;;;;;5.52;74.69;99664.80;130225;1257;115394;-64
2023/02/01 09:19:27;;;;;;;15.20;5.10;;;;;;;5.47;74.70;99662.13;129963;1260;114808;-61
2023/02/01 09:22:30;;;;;;;18.90;6.30;;;;;;;5.46;75.16;99658.83;130173;1264;114759;-67
2023/02/01 09:25:32;;;;;;;15.20;4.10;;;;;;;5.47;75.16;99656.14;130184;1265;114695;-63
2023/02/01 09:28:35;;;;;;;15.30;4.10;;;;;;;5.44;75.05;99650.75;130543;1251;114718;-62
2023/02/01 09:31:38;;;;;;;17.00;4.40;;;;;;;5.44;75.03;99650.41;130071;1275;235143;-61
2023/02/01 09:34:40;;;;;;;14.20;4.40;;;;;;;5.46;75.05;99645.36;129948;1260;114856;-65
2023/02/01 09:37:43;;;;;;;9.30;3.40;;;;;;;5.51;74.99;99651.92;130327;1264;114811;-61
2023/02/01 09:40:47;;;;;;;19.80;4.20;;;;;;;5.57;75.08;99641.59;130142;1260;114732;-66
2023/02/01 09:44:08;;;;;;;13.50;3.50;;;;;;;5.65;75.03;99639.14;130178;1256;114718;-64
2023/02/01 09:47:14;;;;;;;13.10;3.70;;;;;;;5.70;74.65;99637.73;130175;1257;115259;-62
2023/02/01 09:50:23;;;;;;;12.00;3.80;;;;;;;5.76;74.93;99635.49;130202;1275;114715;-61
2023/02/01 09:53:31;;;;;;;11.10;3.80;;;;;;;5.87;74.78;99639.15;130273;1264;114699;-64
2023/02/01 09:56:59;;;;;;;12.30;3.30;;;;;;;5.95;74.48;99632.62;129993;1259;114880;-62
2023/02/01 10:00:05;;;;;;;12.30;3.20;;;;;;;6.01;74.43;99629.03;129818;1275;128478;-64
2023/02/01 10:03:12;;;;;;;9.80;2.80;;;;;;;6.07;74.28;99628.79;130228;1266;115135;-67
2023/02/01 10:06:33;;;;;;;6.60;2.80;;;;;;;6.12;74.01;99625.75;130019;1260;115350;-67
2023/02/01 10:09:55;;;;;;;13.60;3.50;;;;;;;6.17;74.14;99625.17;129892;1261;114897;-62
2023/02/01 10:13:08;;;;;;;14.20;4.40;;;;;;;6.21;74.00;99623.94;130281;1275;114698;-72
2023/02/01 10:16:18;;;;;;;15.60;4.10;;;;;;;6.23;73.87;99620.13;129964;1259;127548;-60
2023/02/01 10:19:49;;;;;;;8.20;3.30;;;;;;;6.27;73.92;99617.47;130005;1275;115177;-61
2023/02/01 10:23:28;;;;;;;7.70;3.10;;;;;;;6.28;73.41;99613.20;129426;1266;114964;-62
2023/02/01 10:26:33;;;;;;;13.20;3.20;;;;;;;6.16;73.11;99611.90;129041;1270;115318;-60
2023/02/01 10:29:41;;;;;;;6.50;2.70;;;;;;;6.10;73.16;99610.79;128972;1288;114860;-63
2023/02/01 10:32:43;;;;;;;10.80;3.00;;;;;;;6.08;73.13;99604.29;128982;1288;128868;-61
2023/02/01 10:35:46;;;;;;;15.90;3.60;;;;;;;6.07;73.43;99601.29;129017;1270;114897;-64
2023/02/01 10:38:49;;;;;;;8.50;3.10;;;;;;;6.05;73.48;99598.36;129352;1271;115598;-64
2023/02/01 10:41:52;;;;;;;10.50;3.20;;;;;;;6.02;73.37;99590.73;128982;1270;114968;-60
2023/02/01 10:44:58;;;;;;;11.80;4.70;;;;;;;6.02;73.52;99590.73;129002;1271;114924;-63
2023/02/01 10:48:03;;;;;;;10.40;3.50;;;;;;;6.00;73.37;99588.47;128992;1288;128647;-61
2023/02/01 10:51:18;;;;;;;11.10;2.90;;;;;;;6.00;73.30;99586.17;128894;1277;116393;-61
2023/02/01 10:54:22;;;;;;;;;;;;;;;6.00;73.30;99584.92;129017;1270;114876;-70
2023/02/01 10:57:28;;;;;;;13.70;3.80;;;;;;;6.01;73.27;99578.18;128696;1272;114983;-61
2023/02/01 11:01:10;;;;;;;12.50;4.20;;;;;;;5.98;73.20;99577.39;129385;1281;114861;-61
2023/02/01 11:04:23;;;;;;;13.50;3.80;;;;;;;5.96;72.95;99571.27;129272;1283;127314;-61
2023/02/01 11:07:25;;;;;;;12.70;3.60;;;;;;;5.93;73.02;99570.85;129148;1272;116360;-71
2023/02/01 11:10:42;;;;;;;20.20;4.80;;;;;;;5.91;73.02;99565.61;129421;1265;114989;-61
2023/02/01 11:13:44;;;;;;;14.70;4.00;;;;;;;5.86;73.33;99558.20;129446;1284;114819;-61
2023/02/01 11:16:49;;;;;;;11.90;3.70;;;;;;;5.82;73.57;99555.35;129420;1284;114892;-67
2023/02/01 11:20:01;;;;;;;;;;;;;;;5.79;73.56;99554.41;129515;1276;128059;-70
2023/02/01 11:23:03;;;;;;;11.10;4.00;;;;;;;5.73;73.64;99547.39;129486;1266;115263;-69
2023/02/01 11:26:15;;;;;;;14.50;3.80;;;;;;;5.67;73.65;99547.11;129253;1276;115423;-68
2023/02/01 11:29:21;;;;;;;16.30;5.00;;;;;;;5.61;73.65;99544.52;129512;1275;114663;-60
2023/02/01 11:32:24;;;;;;;11.10;4.10;;;;;;;5.56;73.99;99538.02;129377;1283;115108;-61
2023/02/01 11:35:28;;;;;;;12.20;4.10;;;;;;;5.53;74.21;99533.02;129797;1275;114739;-68
2023/02/01 11:38:32;;;;;;;13.50;4.20;;;;;;;5.52;74.50;99527.21;130064;1275;114809;-63
2023/02/01 11:41:44;;;;;;;11.70;3.40;;;;;;;5.51;74.72;99519.27;129979;1260;114894;-60
2023/02/01 11:44:49;;;;;;;7.50;2.70;;;;;;;5.48;74.56;99515.84;130309;1255;114797;-64
2023/02/01 11:47:53;;;;;;;9.90;3.60;;;;;;;5.45;74.47;99512.59;130330;1258;114708;-63
2023/02/01 11:51:08;;;;;;;11.10;3.20;;;;;;;5.44;74.66;99505.90;130352;1258;115346;-70
2023/02/01 11:54:20;;;;;;;11.40;3.10;;;;;;;5.44;74.73;99502.89;130113;1260;115140;-63
2023/02/01 11:57:33;;;;;;;11.60;3.40;;;;;;;5.46;74.74;99501.03;129960;1259;115000;-70
2023/02/01 12:00:51;;;;;;;8.50;2.80;;;;;;;5.48;75.01;99497.75;130261;1264;114673;-62
2023/02/01 12:04:09;;;;;;;10.90;4.20;;;;;;;5.45;74.86;99497.89;130136;1257;114689;-67
2023/02/01 12:07:18;;;;;;;9.10;4.00;;;;;;;5.38;75.01;99500.82;130124;1275;127362;-71
2023/02/01 12:10:49;;;;;;;6.80;2.90;;;;;;;5.30;74.81;99499.22;129817;1275;115278;-63
2023/02/01 12:13:59;;;;;;;8.50;3.30;;;;;;;5.23;75.09;99496.13;130211;1251;114753;-67
2023/02/01 12:17:27;;;;;;;16.80;8.00;;;;;;;5.20;75.36;99498.39;129798;1273;115002;-71
2023/02/01 12:20:56;;;;;;;11.00;4.50;;;;;;;5.15;75.40;99494.15;130231;1253;115160;-70
2023/02/01 12:24:18;;;;;;;11.40;5.30;;;;;;;5.11;75.78;99494.66;130143;1259;129054;-62
2023/02/01 12:27:42;;;;;;;9.80;3.70;;;;;;;5.13;75.84;99494.06;130192;1257;115160;-62
2023/02/01 12:31:12;;;;;;;8.40;4.20;;;;;;;5.16;76.08;99497.11;130285;1257;114703;-63
2023/02/01 12:34:37;;;;;;;7.00;2.80;;;;;;;5.24;76.16;99485.31;130024;1260;114764;-64
2023/02/01 12:37:55;;;;;;;9.70;3.00;;;;;;;5.32;76.27;99490.44;129892;1260;116150;-64
2023/02/01 12:41:20;;;;;;;9.80;3.30;;;;;;;5.44;76.42;99487.13;130290;1275;129157;-60
2023/02/01 12:45:11;;;;;;;7.10;3.40;;;;;;;5.51;76.20;99493.77;130173;1275;115217;-65
2023/02/01 12:48:55;;;;;;;5.10;2.90;;;;;;;5.51;76.04;99491.80;129869;1267;114895;-62
2023/02/01 12:52:02;;;;;;;10.70;4.30;;;;;;;5.50;76.25;99496.27;130201;1256;114703;-60
2023/02/01 12:55:38;;;;;;;5.20;3.00;;;;;;;5.47;75.98;99497.25;129970;1257;115125;-60
2023/02/01 12:58:54;;;;;;;7.80;3.60;;;;;;;5.45;76.17;99498.23;129334;1267;126553;-61
2023/02/01 13:02:12;;;;;;;10.30;5.60;;;;;;;5.40;76.17;99505.71;129500;1261;115454;-64
2023/02/01 13:05:21;;;;;;;5.70;3.80;;;;;;;5.37;76.29;99516.13;129393;1266;114859;-62
2023/02/01 13:08:40;;;;;;;12.20;5.80;;;;;;;5.34;76.31;99523.15;129491;1277;115003;-65
2023/02/01 13:11:46;;;;;;;9.30;4.80;;;;;;;5.27;76.45;99532.63;129511;1263;114770;-66
2023/02/01 13:15:02;;;;;;;8.70;4.60;;;;;;;5.25;76.55;99532.02;129474;1280;127844;-64
2023/02/01 13:18:06;;;;;;;16.70;8.20;;;;;;;5.25;76.56;99540.31;129241;1282;116628;-61
2023/02/01 13:21:16;;;;;;;20.00;11.60;;;;;;;5.27;76.72;99543.59;129413;1263;115268;-65
2023/02/01 13:24:21;;;;;;;17.00;9.30;;;;;;;5.31;76.99;99541.85;129209;1280;115094;-66
2023/02/01 13:27:27;;;;;;;7.70;4.10;;;;;;;5.31;76.75;99546.45;129534;1271;116517;-61
2023/02/01 13:30:52;;;;;;;5.30;3.10;;;;;;;5.30;76.87;99541.35;129314;1277;127041;-67
2023/02/01 13:34:36;;;;;;;5.80;3.90;;;;;;;5.31;77.00;99548.73;129447;1282;114843;-61
2023/02/01 13:38:05;;;;;;;6.50;5.10;;;;;;;5.35;76.92;99550.21;129496;1260;114899;-62
2023/02/01 13:41:24;;;;;;;6.60;3.90;;;;;;;5.38;77.04;99552.38;129427;1283;115434;-67
2023/02/01 13:44:39;;;;;;;6.00;3.10;;;;;;;5.41;77.13;99551.89;129460;1260;115003;-64
2023/02/01 13:47:44;;;;;;;9.90;5.20;;;;;;;5.39;76.77;99548.98;129383;1266;128298;-61
2023/02/01 13:50:53;;;;;;;10.60;4.30;;;;;;;5.36;76.75;99551.95;129434;1263;115416;-62
2023/02/01 13:53:55;;;;;;;14.00;6.70;;;;;;;5.33;76.99;99549.54;129481;1264;114797;-61
2023/02/01 13:57:00;;;;;;;11.00;4.70;;;;;;;5.30;76.82;99550.02;129236;1264;114907;-69
2023/02/01 14:00:25;;;;;;;11.80;5.20;;;;;;;5.24;76.82;99552.94;129462;1264;114957;-70
2023/02/01 14:03:46;;;;;;;7.50;3.40;;;;;;;5.22;76.73;99551.76;129326;1283;128958;-60
2023/02/01 14:06:52;;;;;;;7.60;3.30;;;;;;;5.25;77.18;99550.21;129258;1283;115340;-60
2023/02/01 14:09:55;;;;;;;10.60;4.80;;;;;;;5.32;77.27;99549.92;129148;1263;114900;-60
2023/02/01 14:13:12;;;;;;;14.70;4.60;;;;;;;5.44;77.27;99546.46;129459;1254;115497;-71
2023/02/01 14:16:16;;;;;;;12.70;6.10;;;;;;;5.56;77.24;99542.43;130314;1261;114709;-68
2023/02/01 14:19:24;;;;;;;21.10;9.20;;;;;;;5.66;77.19;99540.98;130402;1257;129716;-61
2023/02/01 14:22:34;;;;;;;9.10;4.60;;;;;;;5.69;76.85;99540.67;129953;1275;115133;-70
2023/02/01 14:25:37;;;;;;;14.60;4.60;;;;;;;5.65;76.40;99543.31;130068;1253;114791;-61
2023/02/01 14:28:46;;;;;;;13.70;5.40;;;;;;;5.59;76.39;99547.80;130333;1267;114645;-61
2023/02/01 14:32:07;;;;;;;11.10;4.50;;;;;;;5.52;76.46;99555.70;130179;1252;115457;-67
2023/02/01 14:35:19;;;;;;;6.90;3.10;;;;;;;5.44;76.77;99557.81;130019;1252;127562;-72
2023/02/01 14:38:21;;;;;;;7.40;3.90;;;;;;;5.31;76.71;99555.64;130053;1275;115154;-67
2023/02/01 14:41:30;;;;;;;14.30;4.50;;;;;;;5.27;76.83;99553.16;130357;1254;114792;-61
2023/02/01 14:44:34;;;;;;;9.70;3.00;;;;;;;5.23;76.89;99552.41;130559;1256;114801;-60
2023/02/01 14:47:37;;;;;;;12.40;4.50;;;;;;;5.19;77.08;99554.36;130411;1258;115077;-60
2023/02/01 14:50:44;;;;;;;11.50;5.30;;;;;;;5.16;77.25;99557.99;130301;1258;114769;-72